Time;durP1;ratioP1;P1;durP2;ratioP2;P2;SDS_P1;SDS_P2;PMS_P1;PMS_P2;Temp;Humidity;BMP_temperature;BMP_pressure;BME280_temperature;BME280_humidity;BME280_pressure;Samples;Min_cycle;Max_cycle;Signal;HPM_P1;HPM_P2
2023/06/18 00:00:35;;;;;;;1999.90;999.90;;;13.70;59.40;;;;;;5038342;28;20056;-84
2023/06/18 00:03:01;;;;;;;1999.90;999.90;;;13.70;60.10;;;;;;5035296;28;20112;-84
2023/06/18 00:05:26;;;;;;;1999.90;999.90;;;13.70;60.30;;;;;;5042669;28;20037;-84
2023/06/18 00:07:52;;;;;;;1999.90;999.90;;;13.70;60.60;;;;;;5041309;28;20029;-85
2023/06/18 00:10:18;;;;;;;1999.90;999.90;;;13.70;59.20;;;;;;5051086;28;20428;-83
2023/06/18 00:12:43;;;;;;;1999.90;999.90;;;13.70;60.00;;;;;;5035558;28;20021;-83
2023/06/18 00:15:10;;;;;;;1999.90;999.90;;;13.70;61.10;;;;;;5031165;28;20049;-83
2023/06/18 00:17:35;;;;;;;1999.90;999.90;;;13.60;61.10;;;;;;5039083;28;20029;-83
2023/06/18 00:20:03;;;;;;;1999.90;999.90;;;13.60;60.40;;;;;;5038155;28;20508;-83
2023/06/18 00:22:29;;;;;;;1999.90;999.90;;;13.60;61.00;;;;;;5037114;28;20493;-83
2023/06/18 00:24:56;;;;;;;1999.90;999.90;;;13.60;62.20;;;;;;5038753;28;20036;-82
2023/06/18 00:27:22;;;;;;;1999.90;999.90;;;13.60;62.20;;;;;;5035822;28;20507;-83
2023/06/18 00:29:48;;;;;;;1999.90;999.90;;;13.40;62.60;;;;;;5036243;28;20034;-83
2023/06/18 00:32:16;;;;;;;1999.90;999.90;;;13.40;63.80;;;;;;5042731;28;20029;-83
2023/06/18 00:34:42;;;;;;;1999.90;999.90;;;13.40;62.50;;;;;;5036425;28;20167;-85
2023/06/18 00:37:12;;;;;;;1999.90;999.90;;;13.30;62.30;;;;;;5019893;28;20045;-83
2023/06/18 00:39:38;;;;;;;1999.90;999.90;;;13.30;62.60;;;;;;5032975;28;20127;-83
2023/06/18 00:42:07;;;;;;;1999.90;999.90;;;13.20;62.00;;;;;;5043605;28;20120;-83
2023/06/18 00:44:34;;;;;;;1999.90;999.90;;;13.20;62.50;;;;;;5045026;28;20068;-86
2023/06/18 00:47:00;;;;;;;1999.90;999.90;;;13.10;61.90;;;;;;5041451;28;20037;-83
2023/06/18 00:49:29;;;;;;;1999.90;999.90;;;13.10;61.60;;;;;;5037212;28;20018;-84
2023/06/18 00:51:55;;;;;;;1999.90;999.90;;;13.20;64.30;;;;;;5045220;28;20116;-81
2023/06/18 00:54:22;;;;;;;1999.90;999.90;;;13.10;63.70;;;;;;5042803;28;20033;-82
2023/06/18 00:56:53;;;;;;;1999.90;999.90;;;13.00;64.50;;;;;;5037889;28;20040;-82
2023/06/18 00:59:22;;;;;;;1999.90;999.90;;;12.90;63.80;;;;;;5035477;28;20558;-82
2023/06/18 01:01:53;;;;;;;1999.90;999.90;;;12.90;63.40;;;;;;5036756;28;20039;-82
2023/06/18 01:04:20;;;;;;;1999.90;999.90;;;12.80;63.30;;;;;;5033455;28;20478;-84
2023/06/18 01:06:52;;;;;;;1999.90;999.90;;;12.80;63.50;;;;;;5032101;28;20055;-81
2023/06/18 01:09:22;;;;;;;1999.90;999.90;;;12.80;63.60;;;;;;5027653;28;20145;-82
2023/06/18 01:11:52;;;;;;;1999.90;999.90;;;12.80;63.80;;;;;;5035028;28;20026;-82
2023/06/18 01:14:22;;;;;;;1999.90;999.90;;;12.70;64.60;;;;;;5032221;28;20040;-83
2023/06/18 01:16:49;;;;;;;1999.90;999.90;;;12.60;66.00;;;;;;5035255;28;20033;-81
2023/06/18 01:19:33;;;;;;;1999.90;999.90;;;12.60;66.50;;;;;;5032882;28;20038;-82
2023/06/18 01:22:11;;;;;;;1999.90;999.90;;;12.40;67.00;;;;;;5031723;28;20111;-81
2023/06/18 01:24:45;;;;;;;1999.90;999.90;;;12.40;67.60;;;;;;5034656;28;20112;-81
2023/06/18 01:27:12;;;;;;;1999.90;999.90;;;12.30;67.30;;;;;;5032619;28;20037;-82
2023/06/18 01:29:39;;;;;;;1999.90;999.90;;;12.20;67.90;;;;;;5033583;28;20118;-83
2023/06/18 01:32:06;;;;;;;1999.90;999.90;;;12.30;67.50;;;;;;5036279;28;20025;-83
2023/06/18 01:34:32;;;;;;;1999.90;999.90;;;12.20;67.30;;;;;;5034080;28;20097;-83
2023/06/18 01:37:14;;;;;;;1999.90;999.90;;;12.20;67.80;;;;;;5030873;28;20033;-83
2023/06/18 01:39:59;;;;;;;1999.90;999.90;;;12.20;68.20;;;;;;5032817;28;20036;-82
2023/06/18 01:42:27;;;;;;;1999.90;999.90;;;12.10;67.70;;;;;;5034075;28;20045;-83
2023/06/18 01:45:03;;;;;;;1999.90;999.90;;;12.00;67.60;;;;;;5038373;28;20052;-83
2023/06/18 01:47:29;;;;;;;1999.90;999.90;;;12.00;67.70;;;;;;5035353;28;20787;-84
2023/06/18 01:49:58;;;;;;;1999.90;999.90;;;12.10;68.70;;;;;;5032998;28;20025;-84
2023/06/18 01:52:25;;;;;;;1999.90;999.90;;;12.00;68.30;;;;;;5030511;28;20029;-81
2023/06/18 01:54:52;;;;;;;1999.90;999.90;;;12.00;68.40;;;;;;5023693;28;20488;-83
2023/06/18 01:57:18;;;;;;;1999.90;999.90;;;12.00;68.70;;;;;;5029742;28;20053;-83
2023/06/18 01:59:44;;;;;;;1999.90;999.90;;;11.90;69.30;;;;;;5044328;28;20083;-84
2023/06/18 02:02:12;;;;;;;1999.90;999.90;;;11.90;69.50;;;;;;5028447;28;20518;-82
2023/06/18 02:04:43;;;;;;;1999.90;999.90;;;11.80;70.00;;;;;;5049146;28;20035;-83
2023/06/18 02:07:12;;;;;;;1999.90;999.90;;;11.80;69.90;;;;;;5039693;28;20025;-83
2023/06/18 02:09:37;;;;;;;1999.90;999.90;;;11.70;70.30;;;;;;5037854;28;20029;-83
2023/06/18 02:12:03;;;;;;;1999.90;999.90;;;11.60;69.50;;;;;;5031933;28;20048;-82
2023/06/18 02:14:30;;;;;;;1999.90;999.90;;;11.60;69.80;;;;;;5033377;28;20044;-83
2023/06/18 02:16:56;;;;;;;1999.90;999.90;;;11.50;70.10;;;;;;5037436;28;20021;-82
2023/06/18 02:19:21;;;;;;;1999.90;999.90;;;11.50;70.30;;;;;;5040545;28;20037;-82
2023/06/18 02:21:47;;;;;;;1999.90;999.90;;;11.50;70.30;;;;;;5036942;28;20049;-82
2023/06/18 02:24:15;;;;;;;1999.90;999.90;;;11.40;70.10;;;;;;5035657;28;20474;-82
2023/06/18 02:26:41;;;;;;;1999.90;999.90;;;11.50;69.10;;;;;;5038198;28;20035;-82
2023/06/18 02:29:07;;;;;;;1999.90;999.90;;;11.60;69.10;;;;;;5022270;28;20033;-82
2023/06/18 02:31:32;;;;;;;1999.90;999.90;;;11.60;68.40;;;;;;5015710;28;20439;-82
2023/06/18 02:33:58;;;;;;;1999.90;999.90;;;11.60;69.70;;;;;;5038713;28;20550;-82
2023/06/18 02:36:24;;;;;;;1999.90;999.90;;;11.60;69.70;;;;;;5036811;28;20034;-82
2023/06/18 02:38:52;;;;;;;1999.90;999.90;;;11.50;70.20;;;;;;5034572;28;20033;-83
2023/06/18 02:41:18;;;;;;;1999.90;999.90;;;11.60;70.00;;;;;;5031486;28;20725;-83
2023/06/18 02:43:44;;;;;;;1999.90;999.90;;;11.60;68.50;;;;;;5031548;28;20144;-83
2023/06/18 02:46:10;;;;;;;1999.90;999.90;;;11.50;69.80;;;;;;5038711;28;20029;-82
2023/06/18 02:48:35;;;;;;;1999.90;999.90;;;11.50;68.50;;;;;;5034631;28;20489;-83
2023/06/18 02:51:01;;;;;;;1999.90;999.90;;;11.50;69.60;;;;;;5037022;28;20492;-82
2023/06/18 02:53:27;;;;;;;1999.90;999.90;;;11.50;69.80;;;;;;5037461;28;20029;-82
2023/06/18 02:55:52;;;;;;;1999.90;999.90;;;11.40;70.00;;;;;;5015069;28;20488;-82
2023/06/18 02:58:28;;;;;;;1526.55;775.00;;;11.40;69.40;;;;;;5017056;28;20238;-82
2023/06/18 03:00:59;;;;;;;1559.78;806.42;;;11.40;69.60;;;;;;5031873;28;20037;-83
2023/06/18 03:03:24;;;;;;;300.05;283.95;;;11.40;70.30;;;;;;5032053;28;20040;-82
2023/06/18 03:05:50;;;;;;;1999.90;999.90;;;11.30;69.90;;;;;;5036878;28;20033;-83
2023/06/18 03:08:18;;;;;;;1999.90;999.90;;;11.30;69.50;;;;;;5030665;28;20030;-82
2023/06/18 03:10:45;;;;;;;347.15;328.05;;;11.30;70.00;;;;;;5030494;28;20112;-82
2023/06/18 03:13:10;;;;;;;385.55;365.52;;;11.20;71.20;;;;;;5040063;28;20030;-82
2023/06/18 03:15:36;;;;;;;418.92;396.83;;;11.30;71.10;;;;;;5030086;28;20428;-83
2023/06/18 03:18:02;;;;;;;415.08;393.35;;;11.10;71.80;;;;;;5035515;28;20041;-82
2023/06/18 03:20:28;;;;;;;370.08;350.88;;;11.20;71.90;;;;;;5036592;28;20073;-82
2023/06/18 03:22:54;;;;;;;384.17;364.42;;;11.20;71.40;;;;;;5029478;28;20040;-82
2023/06/18 03:25:20;;;;;;;372.52;353.02;;;11.20;71.40;;;;;;5034080;28;20029;-83
2023/06/18 03:27:47;;;;;;;425.73;403.80;;;11.10;71.60;;;;;;5035480;28;20030;-82
2023/06/18 03:30:13;;;;;;;484.88;459.73;;;11.10;72.00;;;;;;5030627;28;20029;-82
2023/06/18 03:32:39;;;;;;;485.95;460.40;;;11.10;72.30;;;;;;5028112;28;20029;-84
2023/06/18 03:35:06;;;;;;;488.35;463.00;;;11.20;72.00;;;;;;5035731;28;20037;-84
2023/06/18 03:37:31;;;;;;;492.58;467.25;;;11.20;72.50;;;;;;5037354;28;20032;-84
2023/06/18 03:39:58;;;;;;;504.08;478.77;;;11.20;72.30;;;;;;5030995;28;20029;-84
2023/06/18 03:42:24;;;;;;;523.13;496.88;;;11.20;72.30;;;;;;5029107;28;20032;-84
2023/06/18 03:44:50;;;;;;;519.15;493.33;;;11.30;72.10;;;;;;5039039;28;20041;-84
2023/06/18 03:47:16;;;;;;;499.15;474.80;;;11.30;71.80;;;;;;5034799;28;20124;-82
2023/06/18 03:49:42;;;;;;;541.03;513.53;;;11.30;71.70;;;;;;5034316;28;20036;-82
2023/06/18 03:52:08;;;;;;;546.17;519.30;;;11.40;72.00;;;;;;5039448;28;20033;-83
2023/06/18 03:54:33;;;;;;;544.50;518.33;;;11.50;72.20;;;;;;5033328;28;20112;-82
2023/06/18 03:56:59;;;;;;;551.92;524.47;;;11.60;71.30;;;;;;5037021;28;20077;-83
2023/06/18 03:59:24;;;;;;;568.35;540.60;;;11.60;71.50;;;;;;5035708;28;20120;-82
2023/06/18 04:01:51;;;;;;;579.05;550.35;;;11.70;70.80;;;;;;5034773;28;20037;-82
2023/06/18 04:04:16;;;;;;;580.58;550.80;;;11.70;70.50;;;;;;5042771;28;20036;-82
2023/06/18 04:06:42;;;;;;;566.83;537.80;;;11.80;70.10;;;;;;5034815;28;20025;-82
2023/06/18 04:09:08;;;;;;;594.17;565.10;;;11.90;69.80;;;;;;5038365;28;20489;-82
2023/06/18 04:11:36;;;;;;;555.83;529.55;;;11.80;71.50;;;;;;5036469;28;20088;-83
2023/06/18 04:14:02;;;;;;;599.97;570.70;;;11.90;70.60;;;;;;5031525;28;20049;-83
2023/06/18 04:16:28;;;;;;;582.90;554.28;;;12.00;70.10;;;;;;5032445;28;20032;-82
2023/06/18 04:18:54;;;;;;;601.97;573.22;;;12.10;70.40;;;;;;5034664;28;20029;-82
2023/06/18 04:21:20;;;;;;;601.90;573.58;;;12.20;69.60;;;;;;5031062;28;20049;-82
2023/06/18 04:23:46;;;;;;;607.28;578.30;;;12.20;70.30;;;;;;5035289;28;20018;-82
2023/06/18 04:26:11;;;;;;;587.63;560.08;;;12.40;70.30;;;;;;5036467;28;20439;-82
2023/06/18 04:28:37;;;;;;;568.58;542.10;;;12.50;69.50;;;;;;5026645;28;20061;-82
2023/06/18 04:31:03;;;;;;;583.25;555.25;;;12.60;69.50;;;;;;5020993;28;20492;-84
2023/06/18 04:33:28;;;;;;;569.40;541.55;;;12.70;69.10;;;;;;5019945;28;20038;-82
2023/06/18 04:35:54;;;;;;;533.50;508.63;;;12.80;68.60;;;;;;5032560;28;20025;-82
2023/06/18 04:38:21;;;;;;;578.60;551.15;;;12.90;69.20;;;;;;5035246;28;20037;-82
2023/06/18 04:40:47;;;;;;;591.80;563.17;;;13.00;67.90;;;;;;5034945;28;20597;-82
2023/06/18 04:43:13;;;;;;;475.55;453.80;;;13.20;67.80;;;;;;5034816;28;20034;-82
2023/06/18 04:45:39;;;;;;;565.05;537.40;;;13.30;67.20;;;;;;5032495;28;20041;-82
2023/06/18 04:48:05;;;;;;;579.35;551.60;;;13.30;68.00;;;;;;5031845;28;20453;-82
2023/06/18 04:50:30;;;;;;;542.40;517.13;;;13.40;68.60;;;;;;5038008;28;20101;-82
2023/06/18 04:52:56;;;;;;;571.30;543.40;;;13.50;68.00;;;;;;5034822;28;20025;-82
2023/06/18 04:55:22;;;;;;;560.20;532.75;;;13.70;67.70;;;;;;5036847;28;20043;-82
2023/06/18 04:57:48;;;;;;;584.75;556.15;;;13.80;67.40;;;;;;5034865;28;20515;-82
2023/06/18 05:00:15;;;;;;;570.10;541.75;;;13.90;67.40;;;;;;5030498;28;20029;-82
2023/06/18 05:02:41;;;;;;;577.90;550.40;;;14.10;66.50;;;;;;5036679;28;20061;-82
2023/06/18 05:05:08;;;;;;;618.53;587.63;;;14.20;66.00;;;;;;5035802;28;20064;-82
2023/06/18 05:07:33;;;;;;;626.05;594.78;;;14.30;66.50;;;;;;5037354;28;20025;-83
2023/06/18 05:09:59;;;;;;;604.28;574.08;;;14.40;66.70;;;;;;5035974;28;20056;-82
2023/06/18 05:12:24;;;;;;;577.40;549.92;;;14.40;67.00;;;;;;5032347;28;20033;-82
2023/06/18 05:14:50;;;;;;;579.75;552.20;;;14.30;67.70;;;;;;5035919;28;20037;-83
2023/06/18 05:17:16;;;;;;;607.13;576.80;;;14.40;66.20;;;;;;5036042;28;20045;-82
2023/06/18 05:19:41;;;;;;;626.05;593.05;;;14.50;66.50;;;;;;5014287;28;20040;-82
2023/06/18 05:22:07;;;;;;;576.22;549.15;;;14.50;67.90;;;;;;5037929;28;20058;-82
2023/06/18 05:24:33;;;;;;;594.78;566.05;;;14.40;65.80;;;;;;5029971;28;20421;-82
2023/06/18 05:26:58;;;;;;;596.45;567.10;;;14.40;66.20;;;;;;5038991;28;20034;-83
2023/06/18 05:29:24;;;;;;;610.95;579.92;;;14.50;66.90;;;;;;5019472;28;20061;-83
2023/06/18 05:31:50;;;;;;;576.90;548.30;;;14.60;67.40;;;;;;5032720;28;20110;-84
2023/06/18 05:34:16;;;;;;;614.17;583.90;;;14.50;68.00;;;;;;5032775;28;20041;-85
2023/06/18 05:36:42;;;;;;;647.97;613.78;;;14.70;66.80;;;;;;5016833;28;20047;-83
2023/06/18 05:39:07;;;;;;;639.03;606.05;;;14.80;66.00;;;;;;5035367;28;20029;-82
2023/06/18 05:41:33;;;;;;;660.50;626.28;;;15.00;65.60;;;;;;5041400;28;20516;-82
2023/06/18 05:43:58;;;;;;;627.90;595.70;;;15.20;66.30;;;;;;5036335;28;20036;-81
2023/06/18 05:46:24;;;;;;;654.03;620.65;;;15.30;66.70;;;;;;5026929;28;20116;-81
2023/06/18 05:48:50;;;;;;;692.33;654.28;;;15.50;65.00;;;;;;5033180;28;20029;-83
2023/06/18 05:51:15;;;;;;;689.38;651.92;;;15.70;63.00;;;;;;5026915;28;20707;-82
2023/06/18 05:53:41;;;;;;;737.78;694.58;;;15.80;64.80;;;;;;5031315;28;20030;-82
2023/06/18 05:56:07;;;;;;;677.53;636.80;;;15.80;61.00;;;;;;5015082;28;20553;-83
2023/06/18 05:58:32;;;;;;;698.58;655.92;;;15.90;62.20;;;;;;5036550;28;20021;-83
2023/06/18 06:00:58;;;;;;;688.08;648.20;;;15.90;62.30;;;;;;5036929;28;20049;-84
2023/06/18 06:03:23;;;;;;;650.53;616.53;;;16.10;64.10;;;;;;5036647;28;20025;-83
2023/06/18 06:05:49;;;;;;;673.00;638.13;;;16.00;64.50;;;;;;5035794;28;20037;-84
2023/06/18 06:08:15;;;;;;;744.13;700.65;;;16.00;62.90;;;;;;5017001;28;20578;-82
2023/06/18 06:10:41;;;;;;;714.67;674.70;;;16.10;61.70;;;;;;5035758;28;20033;-81
2023/06/18 06:13:07;;;;;;;767.28;720.60;;;16.20;64.90;;;;;;5035934;28;20032;-84
2023/06/18 06:15:33;;;;;;;734.80;689.58;;;16.30;63.60;;;;;;5032157;28;20037;-85
2023/06/18 06:17:58;;;;;;;737.95;691.10;;;16.50;63.20;;;;;;5036118;28;20066;-87
2023/06/18 06:20:24;;;;;;;782.97;734.10;;;16.50;61.30;;;;;;5031678;28;20516;-89
2023/06/18 06:22:50;;;;;;;724.70;678.10;;;16.50;61.70;;;;;;5011786;28;20033;-84
2023/06/18 06:25:16;;;;;;;727.03;679.13;;;16.60;61.70;;;;;;5032385;28;20382;-82
2023/06/18 06:27:43;;;;;;;732.40;685.00;;;16.90;62.80;;;;;;5035259;28;20034;-84
2023/06/18 06:30:09;;;;;;;751.42;702.15;;;17.00;62.00;;;;;;5030144;28;20576;-88
2023/06/18 06:32:35;;;;;;;721.28;673.63;;;17.10;62.20;;;;;;5020622;28;20400;-88
2023/06/18 06:35:04;;;;;;;611.67;570.92;;;17.30;60.60;;;;;;5030779;28;20136;-87
2023/06/18 06:37:32;;;;;;;725.63;676.67;;;17.40;59.30;;;;;;5036355;28;20145;-87
2023/06/18 06:39:58;;;;;;;1222.00;706.10;;;17.40;60.10;;;;;;5019273;28;20536;-88
2023/06/18 06:42:24;;;;;;;650.45;606.83;;;17.60;58.30;;;;;;5032603;28;20033;-92
2023/06/18 06:44:49;;;;;;;1999.90;999.90;;;17.80;60.40;;;;;;5038272;28;20373;-94
2023/06/18 06:47:15;;;;;;;716.67;667.95;;;18.00;57.00;;;;;;5033312;28;20026;-86
2023/06/18 06:49:41;;;;;;;558.97;520.33;;;18.00;59.80;;;;;;5030651;28;20037;-87
2023/06/18 06:52:06;;;;;;;1999.90;999.90;;;18.20;59.70;;;;;;5031891;28;20113;-86
2023/06/18 06:54:32;;;;;;;694.80;648.28;;;18.30;56.70;;;;;;5029826;28;20052;-89
2023/06/18 06:56:58;;;;;;;1999.90;999.90;;;18.40;60.40;;;;;;5031115;28;20103;-87
2023/06/18 06:59:23;;;;;;;1999.90;999.90;;;18.60;57.60;;;;;;5027076;28;20037;-86
2023/06/18 07:01:49;;;;;;;1999.90;999.90;;;18.70;56.70;;;;;;5032142;28;20040;-85
2023/06/18 07:04:15;;;;;;;1999.90;999.90;;;18.90;56.90;;;;;;5028734;28;20117;-85
2023/06/18 07:06:41;;;;;;;1999.90;999.90;;;18.90;53.80;;;;;;5034248;28;20781;-84
2023/06/18 07:09:07;;;;;;;1999.90;999.90;;;19.20;52.60;;;;;;5036990;28;20463;-85
2023/06/18 07:11:35;;;;;;;1999.90;999.90;;;19.30;54.30;;;;;;5041269;28;20018;-85
2023/06/18 07:14:01;;;;;;;1999.90;999.90;;;19.50;53.40;;;;;;5032415;28;20052;-85
2023/06/18 07:16:27;;;;;;;1999.90;999.90;;;19.50;47.60;;;;;;5039769;28;20033;-85
2023/06/18 07:18:53;;;;;;;1999.90;999.90;;;19.60;47.10;;;;;;5044349;28;20100;-85
2023/06/18 07:21:18;;;;;;;1999.90;999.90;;;19.70;52.00;;;;;;5040367;28;20076;-85
2023/06/18 07:23:44;;;;;;;1999.90;999.90;;;19.80;50.60;;;;;;5038764;28;20059;-85
2023/06/18 07:26:10;;;;;;;1999.90;999.90;;;20.00;47.90;;;;;;5065904;28;20029;-85
2023/06/18 07:28:35;;;;;;;1999.90;999.90;;;20.40;48.50;;;;;;5040616;28;20025;-88
2023/06/18 07:31:02;;;;;;;1999.90;999.90;;;20.50;51.20;;;;;;5043852;28;20385;-85
2023/06/18 07:33:27;;;;;;;1999.90;999.90;;;20.50;45.10;;;;;;5041033;28;20028;-85
2023/06/18 07:35:53;;;;;;;1999.90;999.90;;;20.60;48.20;;;;;;5033618;28;20038;-85
2023/06/18 07:38:19;;;;;;;1999.90;999.90;;;20.60;45.70;;;;;;5034774;28;20033;-87
2023/06/18 07:40:44;;;;;;;1999.90;999.90;;;20.90;47.30;;;;;;5035736;28;20117;-86
2023/06/18 07:43:11;;;;;;;1999.90;999.90;;;21.20;44.20;;;;;;5033773;28;20033;-86
2023/06/18 07:45:36;;;;;;;1999.90;999.90;;;21.40;45.20;;;;;;5036068;28;20048;-89
2023/06/18 07:48:02;;;;;;;1999.90;999.90;;;21.30;42.40;;;;;;5031581;28;20167;-86
2023/06/18 07:50:28;;;;;;;1999.90;999.90;;;21.30;42.50;;;;;;5032803;28;20087;-84
2023/06/18 07:52:53;;;;;;;1999.90;999.90;;;21.60;42.20;;;;;;5034611;28;20033;-84
2023/06/18 07:55:19;;;;;;;1999.90;999.90;;;21.80;44.10;;;;;;5038664;28;20544;-85
2023/06/18 07:57:45;;;;;;;1999.90;999.90;;;21.90;43.90;;;;;;5034141;28;20100;-85
2023/06/18 08:00:11;;;;;;;1999.90;999.90;;;21.80;42.60;;;;;;5034226;28;20411;-87
2023/06/18 08:02:37;;;;;;;1999.90;999.90;;;22.10;43.40;;;;;;5035138;28;20132;-86
2023/06/18 08:05:02;;;;;;;1999.90;999.90;;;22.10;40.70;;;;;;5035646;28;20590;-86
2023/06/18 08:07:28;;;;;;;1999.90;999.90;;;22.30;40.40;;;;;;5040898;28;20496;-84
2023/06/18 08:09:54;;;;;;;1999.90;999.90;;;22.30;42.00;;;;;;5037084;28;20017;-86
2023/06/18 08:12:19;;;;;;;1999.90;999.90;;;22.60;42.60;;;;;;5033966;28;20072;-85
2023/06/18 08:14:48;;;;;;;1999.90;999.90;;;22.60;39.90;;;;;;5032041;28;20041;-85
2023/06/18 08:17:16;;;;;;;1999.90;999.90;;;22.80;41.70;;;;;;5040134;28;20554;-85
2023/06/18 08:19:45;;;;;;;1999.90;999.90;;;23.20;39.40;;;;;;5045549;28;20479;-86
2023/06/18 08:22:15;;;;;;;1999.90;999.90;;;23.40;37.50;;;;;;5033235;28;20137;-86
2023/06/18 08:24:41;;;;;;;;;;;23.40;36.50;;;;;;5030391;28;20746;-86
2023/06/18 08:27:07;;;;;;;1999.90;999.90;;;23.60;33.80;;;;;;5033198;28;20012;-86
2023/06/18 08:29:32;;;;;;;1999.90;999.90;;;23.70;33.80;;;;;;5033683;28;20137;-86
2023/06/18 08:32:04;;;;;;;1999.90;999.90;;;24.00;35.70;;;;;;5022779;28;20045;-86
2023/06/18 08:34:34;;;;;;;1999.90;999.90;;;23.80;36.30;;;;;;5030697;28;20029;-86
2023/06/18 08:37:00;;;;;;;1999.90;999.90;;;24.00;34.50;;;;;;5034108;28;20029;-86
2023/06/18 08:39:29;;;;;;;1999.90;999.90;;;24.10;36.20;;;;;;5031853;28;20056;-87
2023/06/18 08:41:59;;;;;;;1999.90;999.90;;;24.20;35.70;;;;;;5026550;28;20094;-86
2023/06/18 08:44:26;;;;;;;1999.90;999.90;;;24.50;35.50;;;;;;5029990;28;20655;-84
2023/06/18 08:46:57;;;;;;;1999.90;999.90;;;24.50;35.30;;;;;;5031240;28;20113;-84
2023/06/18 08:49:25;;;;;;;1999.90;999.90;;;24.70;37.90;;;;;;5033039;28;20033;-84
2023/06/18 08:51:57;;;;;;;1999.90;999.90;;;24.70;35.50;;;;;;5033809;28;20597;-84
2023/06/18 08:54:27;;;;;;;1999.90;999.90;;;25.10;34.10;;;;;;5031652;28;20168;-84
2023/06/18 08:57:00;;;;;;;1999.90;999.90;;;25.10;36.30;;;;;;5031521;28;20028;-84
2023/06/18 08:59:27;;;;;;;1999.90;999.90;;;25.30;36.10;;;;;;5031104;28;20041;-84
2023/06/18 09:01:53;;;;;;;1999.90;999.90;;;25.30;34.20;;;;;;5035775;28;20037;-84
2023/06/18 09:04:21;;;;;;;1999.90;999.90;;;25.10;33.90;;;;;;5031394;28;20034;-85
2023/06/18 09:06:48;;;;;;;1999.90;999.90;;;25.40;35.40;;;;;;5031444;28;20112;-84
2023/06/18 09:09:13;;;;;;;1999.90;999.90;;;25.80;31.00;;;;;;5049571;28;20031;-84
2023/06/18 09:11:39;;;;;;;1999.90;999.90;;;26.10;33.90;;;;;;5030550;28;20033;-86
2023/06/18 09:14:06;;;;;;;1999.90;999.90;;;26.30;30.40;;;;;;5034432;28;20409;-89
2023/06/18 09:16:31;;;;;;;1999.90;999.90;;;26.60;32.80;;;;;;5050171;28;20036;-86
2023/06/18 09:18:58;;;;;;;1999.90;999.90;;;26.50;31.30;;;;;;5034415;28;20029;-88
2023/06/18 09:21:38;;;;;;;1999.90;999.90;;;26.70;33.20;;;;;;5028967;28;20655;-88
2023/06/18 09:24:09;;;;;;;1999.90;999.90;;;26.50;32.80;;;;;;5011892;28;20133;-87
2023/06/18 09:26:35;;;;;;;1999.90;999.90;;;26.40;33.90;;;;;;5032275;28;20036;-85
2023/06/18 09:29:05;;;;;;;1999.90;999.90;;;26.90;30.50;;;;;;5013342;28;20029;-87
2023/06/18 09:31:31;;;;;;;1999.90;999.90;;;26.90;30.60;;;;;;5031736;28;20388;-84
2023/06/18 09:33:57;;;;;;;1999.90;999.90;;;27.00;32.20;;;;;;5034349;28;20033;-87
2023/06/18 09:36:25;;;;;;;1999.90;999.90;;;26.60;32.60;;;;;;5032386;28;20053;-86
2023/06/18 09:38:53;;;;;;;1999.90;999.90;;;26.90;31.00;;;;;;5033239;28;20025;-87
2023/06/18 09:41:19;;;;;;;1999.90;999.90;;;26.70;33.80;;;;;;5035403;28;20033;-88
2023/06/18 09:43:48;;;;;;;1999.90;999.90;;;27.20;34.40;;;;;;5020092;28;20489;-87
2023/06/18 09:46:15;;;;;;;1999.90;999.90;;;27.40;31.20;;;;;;5028360;28;20550;-86
2023/06/18 09:48:43;;;;;;;1999.90;999.90;;;27.40;29.00;;;;;;5030994;28;20343;-85
2023/06/18 09:51:10;;;;;;;1999.90;999.90;;;27.10;29.00;;;;;;5032125;28;20025;-86
2023/06/18 09:53:36;;;;;;;1999.90;999.90;;;27.20;34.70;;;;;;5031726;28;20025;-85
2023/06/18 09:56:28;;;;;;;1999.90;999.90;;;27.60;29.30;;;;;;5029489;28;20036;-86
2023/06/18 09:58:53;;;;;;;1999.90;999.90;;;28.10;29.20;;;;;;5033528;28;20818;-86
2023/06/18 10:01:19;;;;;;;1999.90;999.90;;;28.30;29.60;;;;;;5037057;28;20121;-90
2023/06/18 10:03:46;;;;;;;1999.90;999.90;;;28.20;26.70;;;;;;5019171;28;20029;-86
2023/06/18 10:06:12;;;;;;;1999.90;999.90;;;28.10;28.50;;;;;;5035577;28;20180;-85
2023/06/18 10:08:40;;;;;;;1999.90;999.90;;;28.70;25.60;;;;;;5031547;28;20482;-84
2023/06/18 10:11:08;;;;;;;1999.90;999.90;;;28.30;27.30;;;;;;5037187;28;20493;-85
2023/06/18 10:13:49;;;;;;;1999.90;999.90;;;28.30;26.50;;;;;;5011471;28;20041;-86
2023/06/18 10:16:17;;;;;;;1999.90;999.90;;;28.30;26.30;;;;;;5028260;28;20083;-89
2023/06/18 10:18:48;;;;;;;1999.90;999.90;;;28.60;25.80;;;;;;5022224;28;20033;-88
2023/06/18 10:21:14;;;;;;;1999.90;999.90;;;28.60;27.20;;;;;;5032163;28;20045;-86
2023/06/18 10:23:41;;;;;;;1999.90;999.90;;;29.00;26.00;;;;;;5037301;28;20103;-87
2023/06/18 10:26:07;;;;;;;1999.90;999.90;;;29.50;25.40;;;;;;5013190;28;20029;-89
2023/06/18 10:28:34;;;;;;;1999.90;999.90;;;29.60;25.80;;;;;;5032287;28;20032;-85
2023/06/18 10:31:00;;;;;;;1999.90;999.90;;;29.70;24.00;;;;;;5013442;28;20592;-87
2023/06/18 10:33:27;;;;;;;1999.90;999.90;;;29.50;25.20;;;;;;5033816;28;20021;-88
2023/06/18 10:35:53;;;;;;;1999.90;999.90;;;29.90;23.60;;;;;;5032884;28;20037;-87
2023/06/18 10:38:19;;;;;;;1999.90;999.90;;;29.50;25.00;;;;;;5018473;28;20044;-87
2023/06/18 10:40:45;;;;;;;1999.90;999.90;;;29.40;23.30;;;;;;5031753;28;20038;-87
2023/06/18 10:43:11;;;;;;;1999.90;999.90;;;29.90;23.50;;;;;;5031438;28;20106;-89
2023/06/18 10:45:36;;;;;;;1999.90;999.90;;;29.70;26.40;;;;;;5030427;28;20045;-89
2023/06/18 10:48:18;;;;;;;1999.90;999.90;;;29.20;22.90;;;;;;5016390;28;20510;-88
2023/06/18 10:51:13;;;;;;;1999.90;999.90;;;29.30;23.20;;;;;;5034663;28;20116;-88
2023/06/18 10:53:39;;;;;;;1999.90;999.90;;;30.10;23.90;;;;;;5021848;28;20037;-88
2023/06/18 10:56:05;;;;;;;1999.90;999.90;;;30.20;25.50;;;;;;5034108;28;20419;-90
2023/06/18 10:58:37;;;;;;;1999.90;999.90;;;30.70;23.30;;;;;;5037779;28;20457;-87
2023/06/18 11:01:05;;;;;;;1999.90;999.90;;;30.80;24.70;;;;;;5022000;28;20030;-89
2023/06/18 11:03:35;;;;;;;1999.90;999.90;;;30.90;22.40;;;;;;5033517;28;20084;-90
2023/06/18 11:06:02;;;;;;;1999.90;999.90;;;31.00;21.10;;;;;;5031500;28;20770;-88
2023/06/18 11:08:33;;;;;;;1999.90;999.90;;;31.60;23.80;;;;;;5032011;28;20067;-82
2023/06/18 11:11:03;;;;;;;1999.90;999.90;;;31.50;23.20;;;;;;5034860;28;20144;-82
2023/06/18 11:13:33;;;;;;;1999.90;999.90;;;31.90;19.10;;;;;;5029970;28;20437;-83
2023/06/18 11:16:00;;;;;;;1999.90;999.90;;;31.50;19.10;;;;;;5039559;28;20481;-83
2023/06/18 11:18:28;;;;;;;1999.90;999.90;;;31.30;18.90;;;;;;5031992;28;20401;-83
2023/06/18 11:20:55;;;;;;;1999.90;999.90;;;32.00;19.40;;;;;;5018584;28;20064;-83
2023/06/18 11:23:25;;;;;;;1999.90;999.90;;;32.70;18.70;;;;;;5053064;28;20086;-82
2023/06/18 11:25:51;;;;;;;1999.90;999.90;;;32.50;18.70;;;;;;5034913;28;20044;-83
2023/06/18 11:28:17;;;;;;;1999.90;999.90;;;33.30;18.20;;;;;;5014391;28;20076;-83
2023/06/18 11:30:48;;;;;;;1999.90;999.90;;;33.60;17.50;;;;;;5037713;28;20040;-84
2023/06/18 11:33:20;;;;;;;1999.90;999.90;;;33.60;17.00;;;;;;5033644;28;20038;-83
2023/06/18 11:35:45;;;;;;;1999.90;999.90;;;33.50;18.00;;;;;;5032471;28;20033;-83
2023/06/18 11:38:12;;;;;;;1999.90;999.90;;;33.90;18.80;;;;;;5018751;28;20048;-83
2023/06/18 11:40:50;;;;;;;1999.90;999.90;;;33.10;17.30;;;;;;5011203;28;20041;-82
2023/06/18 11:43:20;;;;;;;1999.90;999.90;;;33.00;17.50;;;;;;5036302;28;20033;-83
2023/06/18 11:45:53;;;;;;;1999.90;999.90;;;33.00;18.30;;;;;;5032919;28;20029;-83
2023/06/18 11:48:22;;;;;;;1999.90;999.90;;;32.90;19.60;;;;;;5037503;28;20138;-83
2023/06/18 11:50:53;;;;;;;1999.90;999.90;;;33.60;18.30;;;;;;5032171;28;20021;-83
2023/06/18 11:53:20;;;;;;;1999.90;999.90;;;34.00;17.10;;;;;;5017043;28;20049;-83
2023/06/18 11:55:46;;;;;;;1999.90;999.90;;;34.30;16.40;;;;;;5037509;28;20578;-83
2023/06/18 11:58:13;;;;;;;1999.90;999.90;;;34.30;17.60;;;;;;5036779;28;20520;-83
2023/06/18 12:00:40;;;;;;;1999.90;999.90;;;34.40;16.00;;;;;;5040953;28;20025;-83